sensor_id;sensor_type;location;lat;lon;timestamp;P1;durP1;ratioP1;P2;durP2;ratioP2
54627;SDS011;40525;55.926;21.066;2023-08-21T00:02:14;4.50;;;2.80;;
54627;SDS011;40525;55.926;21.066;2023-08-21T00:04:41;3.40;;;2.50;;
54627;SDS011;40525;55.926;21.066;2023-08-21T00:07:08;2.80;;;1.90;;
54627;SDS011;40525;55.926;21.066;2023-08-21T00:09:37;3.80;;;2.90;;
54627;SDS011;40525;55.926;21.066;2023-08-21T00:12:04;3.90;;;2.70;;
54627;SDS011;40525;55.926;21.066;2023-08-21T00:14:33;3.20;;;2.80;;
54627;SDS011;40525;55.926;21.066;2023-08-21T00:17:01;3.00;;;2.60;;
54627;SDS011;40525;55.926;21.066;2023-08-21T00:19:30;2.60;;;2.40;;
54627;SDS011;40525;55.926;21.066;2023-08-21T00:21:57;3.70;;;2.80;;
54627;SDS011;40525;55.926;21.066;2023-08-21T00:24:24;2.80;;;2.40;;
54627;SDS011;40525;55.926;21.066;2023-08-21T00:26:50;3.50;;;2.80;;
54627;SDS011;40525;55.926;21.066;2023-08-21T00:29:17;3.20;;;2.70;;
54627;SDS011;40525;55.926;21.066;2023-08-21T00:31:46;2.50;;;2.30;;
54627;SDS011;40525;55.926;21.066;2023-08-21T00:34:13;3.50;;;2.70;;
54627;SDS011;40525;55.926;21.066;2023-08-21T00:36:40;2.80;;;2.30;;
54627;SDS011;40525;55.926;21.066;2023-08-21T00:39:07;4.00;;;3.10;;
54627;SDS011;40525;55.926;21.066;2023-08-21T00:41:34;3.20;;;2.80;;
54627;SDS011;40525;55.926;21.066;2023-08-21T00:44:01;3.40;;;2.80;;
54627;SDS011;40525;55.926;21.066;2023-08-21T00:46:29;4.80;;;2.50;;
54627;SDS011;40525;55.926;21.066;2023-08-21T00:48:57;3.40;;;2.60;;
54627;SDS011;40525;55.926;21.066;2023-08-21T00:51:24;2.90;;;2.60;;
54627;SDS011;40525;55.926;21.066;2023-08-21T00:53:51;2.40;;;1.80;;
54627;SDS011;40525;55.926;21.066;2023-08-21T00:56:18;3.30;;;2.60;;
54627;SDS011;40525;55.926;21.066;2023-08-21T00:58:45;3.30;;;2.20;;
54627;SDS011;40525;55.926;21.066;2023-08-21T01:01:13;2.40;;;1.90;;
54627;SDS011;40525;55.926;21.066;2023-08-21T01:03:45;2.20;;;2.00;;
54627;SDS011;40525;55.926;21.066;2023-08-21T01:06:13;2.80;;;2.40;;
54627;SDS011;40525;55.926;21.066;2023-08-21T01:11:38;2.80;;;2.40;;
54627;SDS011;40525;55.926;21.066;2023-08-21T01:16:40;2.90;;;2.50;;
54627;SDS011;40525;55.926;21.066;2023-08-21T01:19:10;4.50;;;2.50;;
54627;SDS011;40525;55.926;21.066;2023-08-21T01:21:49;2.20;;;2.00;;
54627;SDS011;40525;55.926;21.066;2023-08-21T01:24:19;3.80;;;2.00;;
54627;SDS011;40525;55.926;21.066;2023-08-21T01:26:46;2.90;;;2.50;;
54627;SDS011;40525;55.926;21.066;2023-08-21T01:29:13;2.40;;;2.10;;
54627;SDS011;40525;55.926;21.066;2023-08-21T01:31:40;2.70;;;2.40;;
54627;SDS011;40525;55.926;21.066;2023-08-21T01:34:13;2.60;;;2.20;;
54627;SDS011;40525;55.926;21.066;2023-08-21T01:36:42;3.70;;;2.40;;
54627;SDS011;40525;55.926;21.066;2023-08-21T01:39:11;3.60;;;2.40;;
54627;SDS011;40525;55.926;21.066;2023-08-21T01:41:38;3.20;;;2.80;;
54627;SDS011;40525;55.926;21.066;2023-08-21T01:44:06;3.00;;;2.70;;
54627;SDS011;40525;55.926;21.066;2023-08-21T01:46:33;3.90;;;2.90;;
54627;SDS011;40525;55.926;21.066;2023-08-21T01:49:00;3.80;;;2.60;;
54627;SDS011;40525;55.926;21.066;2023-08-21T01:51:27;2.50;;;2.10;;
54627;SDS011;40525;55.926;21.066;2023-08-21T01:53:54;2.90;;;2.40;;
54627;SDS011;40525;55.926;21.066;2023-08-21T01:56:22;2.80;;;2.40;;
54627;SDS011;40525;55.926;21.066;2023-08-21T01:58:49;2.50;;;2.20;;
54627;SDS011;40525;55.926;21.066;2023-08-21T02:01:16;2.30;;;2.00;;
54627;SDS011;40525;55.926;21.066;2023-08-21T02:03:45;2.90;;;2.50;;
54627;SDS011;40525;55.926;21.066;2023-08-21T02:06:13;3.30;;;2.30;;
54627;SDS011;40525;55.926;21.066;2023-08-21T02:08:40;3.60;;;2.10;;
54627;SDS011;40525;55.926;21.066;2023-08-21T02:11:07;3.40;;;2.40;;
54627;SDS011;40525;55.926;21.066;2023-08-21T02:13:34;2.80;;;2.20;;
54627;SDS011;40525;55.926;21.066;2023-08-21T02:16:01;2.30;;;1.90;;
54627;SDS011;40525;55.926;21.066;2023-08-21T02:18:28;3.10;;;2.20;;
54627;SDS011;40525;55.926;21.066;2023-08-21T02:20:56;2.40;;;2.10;;
54627;SDS011;40525;55.926;21.066;2023-08-21T02:23:23;2.30;;;1.70;;
54627;SDS011;40525;55.926;21.066;2023-08-21T02:25:51;2.90;;;2.10;;
54627;SDS011;40525;55.926;21.066;2023-08-21T02:28:18;2.70;;;1.90;;
54627;SDS011;40525;55.926;21.066;2023-08-21T02:30:47;2.00;;;1.80;;
54627;SDS011;40525;55.926;21.066;2023-08-21T02:33:14;2.40;;;1.90;;
54627;SDS011;40525;55.926;21.066;2023-08-21T02:35:42;2.10;;;1.80;;
54627;SDS011;40525;55.926;21.066;2023-08-21T02:38:09;2.40;;;1.90;;
54627;SDS011;40525;55.926;21.066;2023-08-21T02:40:36;3.00;;;2.40;;
54627;SDS011;40525;55.926;21.066;2023-08-21T02:43:03;2.00;;;1.80;;
54627;SDS011;40525;55.926;21.066;2023-08-21T02:45:31;3.00;;;2.00;;
54627;SDS011;40525;55.926;21.066;2023-08-21T02:47:58;2.90;;;2.30;;
54627;SDS011;40525;55.926;21.066;2023-08-21T02:50:25;2.60;;;2.40;;
54627;SDS011;40525;55.926;21.066;2023-08-21T02:52:52;3.30;;;2.60;;
54627;SDS011;40525;55.926;21.066;2023-08-21T02:55:19;3.90;;;2.40;;
54627;SDS011;40525;55.926;21.066;2023-08-21T02:57:47;3.10;;;2.70;;
54627;SDS011;40525;55.926;21.066;2023-08-21T03:00:14;3.40;;;2.30;;
54627;SDS011;40525;55.926;21.066;2023-08-21T03:02:42;2.50;;;2.30;;
54627;SDS011;40525;55.926;21.066;2023-08-21T03:05:11;3.00;;;2.20;;
54627;SDS011;40525;55.926;21.066;2023-08-21T03:07:38;2.80;;;2.20;;
54627;SDS011;40525;55.926;21.066;2023-08-21T03:10:06;2.80;;;2.30;;
54627;SDS011;40525;55.926;21.066;2023-08-21T03:12:34;2.80;;;2.10;;
54627;SDS011;40525;55.926;21.066;2023-08-21T03:15:02;2.80;;;2.10;;
54627;SDS011;40525;55.926;21.066;2023-08-21T03:17:30;2.10;;;1.80;;
54627;SDS011;40525;55.926;21.066;2023-08-21T03:19:57;3.30;;;2.00;;
54627;SDS011;40525;55.926;21.066;2023-08-21T03:22:24;2.50;;;2.20;;
54627;SDS011;40525;55.926;21.066;2023-08-21T03:24:51;2.40;;;2.10;;
54627;SDS011;40525;55.926;21.066;2023-08-21T03:27:18;3.20;;;2.10;;
54627;SDS011;40525;55.926;21.066;2023-08-21T03:29:45;2.30;;;1.90;;
54627;SDS011;40525;55.926;21.066;2023-08-21T03:32:16;2.40;;;2.20;;
54627;SDS011;40525;55.926;21.066;2023-08-21T03:34:44;2.70;;;2.30;;
54627;SDS011;40525;55.926;21.066;2023-08-21T03:37:12;2.90;;;2.50;;
54627;SDS011;40525;55.926;21.066;2023-08-21T03:39:39;3.30;;;2.50;;
54627;SDS011;40525;55.926;21.066;2023-08-21T03:42:08;2.50;;;2.30;;
54627;SDS011;40525;55.926;21.066;2023-08-21T03:44:37;2.40;;;2.20;;
54627;SDS011;40525;55.926;21.066;2023-08-21T03:47:06;2.60;;;2.20;;
54627;SDS011;40525;55.926;21.066;2023-08-21T03:49:42;2.80;;;2.00;;
54627;SDS011;40525;55.926;21.066;2023-08-21T03:52:09;2.40;;;2.20;;
54627;SDS011;40525;55.926;21.066;2023-08-21T03:54:36;2.70;;;2.20;;
54627;SDS011;40525;55.926;21.066;2023-08-21T03:57:04;3.60;;;2.50;;
54627;SDS011;40525;55.926;21.066;2023-08-21T03:59:31;2.90;;;2.50;;
54627;SDS011;40525;55.926;21.066;2023-08-21T04:02:00;4.50;;;2.60;;
54627;SDS011;40525;55.926;21.066;2023-08-21T04:04:27;2.40;;;2.00;;
54627;SDS011;40525;55.926;21.066;2023-08-21T04:06:54;2.00;;;1.80;;
54627;SDS011;40525;55.926;21.066;2023-08-21T04:09:21;2.30;;;2.00;;
54627;SDS011;40525;55.926;21.066;2023-08-21T04:11:49;2.00;;;1.70;;
54627;SDS011;40525;55.926;21.066;2023-08-21T04:14:16;3.10;;;2.00;;
54627;SDS011;40525;55.926;21.066;2023-08-21T04:16:43;2.30;;;2.00;;
54627;SDS011;40525;55.926;21.066;2023-08-21T04:19:10;2.80;;;2.20;;
54627;SDS011;40525;55.926;21.066;2023-08-21T04:21:37;2.20;;;1.70;;
54627;SDS011;40525;55.926;21.066;2023-08-21T04:24:04;2.40;;;2.20;;
54627;SDS011;40525;55.926;21.066;2023-08-21T04:26:31;2.90;;;2.20;;
54627;SDS011;40525;55.926;21.066;2023-08-21T04:28:58;3.00;;;2.60;;
54627;SDS011;40525;55.926;21.066;2023-08-21T04:31:26;4.50;;;2.30;;
54627;SDS011;40525;55.926;21.066;2023-08-21T04:33:53;2.60;;;2.30;;
54627;SDS011;40525;55.926;21.066;2023-08-21T04:36:20;3.30;;;2.60;;
54627;SDS011;40525;55.926;21.066;2023-08-21T04:38:48;3.30;;;2.50;;
54627;SDS011;40525;55.926;21.066;2023-08-21T04:41:15;3.40;;;2.50;;
54627;SDS011;40525;55.926;21.066;2023-08-21T04:43:44;3.60;;;2.50;;
54627;SDS011;40525;55.926;21.066;2023-08-21T04:46:11;7.60;;;3.20;;
54627;SDS011;40525;55.926;21.066;2023-08-21T04:48:40;3.20;;;2.20;;
54627;SDS011;40525;55.926;21.066;2023-08-21T04:51:07;3.10;;;2.30;;
54627;SDS011;40525;55.926;21.066;2023-08-21T04:53:35;3.40;;;2.70;;
54627;SDS011;40525;55.926;21.066;2023-08-21T04:56:03;3.20;;;2.40;;
54627;SDS011;40525;55.926;21.066;2023-08-21T04:58:31;3.00;;;2.50;;
54627;SDS011;40525;55.926;21.066;2023-08-21T05:00:59;4.30;;;3.00;;
54627;SDS011;40525;55.926;21.066;2023-08-21T05:03:27;3.90;;;2.60;;
54627;SDS011;40525;55.926;21.066;2023-08-21T05:05:54;2.90;;;2.40;;
54627;SDS011;40525;55.926;21.066;2023-08-21T05:08:23;3.40;;;2.50;;
54627;SDS011;40525;55.926;21.066;2023-08-21T05:10:55;4.60;;;2.70;;
54627;SDS011;40525;55.926;21.066;2023-08-21T05:13:23;3.20;;;1.90;;
54627;SDS011;40525;55.926;21.066;2023-08-21T05:15:51;2.90;;;2.40;;
54627;SDS011;40525;55.926;21.066;2023-08-21T05:18:23;3.60;;;2.50;;
54627;SDS011;40525;55.926;21.066;2023-08-21T05:20:53;3.30;;;2.50;;
54627;SDS011;40525;55.926;21.066;2023-08-21T05:23:21;3.10;;;2.50;;
54627;SDS011;40525;55.926;21.066;2023-08-21T05:25:50;3.60;;;2.80;;
54627;SDS011;40525;55.926;21.066;2023-08-21T05:28:17;3.20;;;2.40;;
54627;SDS011;40525;55.926;21.066;2023-08-21T05:30:46;3.40;;;2.30;;
54627;SDS011;40525;55.926;21.066;2023-08-21T05:33:18;3.40;;;2.30;;
54627;SDS011;40525;55.926;21.066;2023-08-21T05:35:46;2.40;;;1.90;;
54627;SDS011;40525;55.926;21.066;2023-08-21T05:38:13;2.80;;;2.00;;
54627;SDS011;40525;55.926;21.066;2023-08-21T05:40:41;2.90;;;2.30;;
54627;SDS011;40525;55.926;21.066;2023-08-21T05:43:10;3.30;;;2.30;;
54627;SDS011;40525;55.926;21.066;2023-08-21T05:45:40;3.00;;;2.30;;
54627;SDS011;40525;55.926;21.066;2023-08-21T05:48:07;2.40;;;2.10;;
54627;SDS011;40525;55.926;21.066;2023-08-21T05:50:35;2.60;;;2.20;;
54627;SDS011;40525;55.926;21.066;2023-08-21T05:53:03;2.40;;;2.10;;
54627;SDS011;40525;55.926;21.066;2023-08-21T05:55:31;3.10;;;2.30;;
54627;SDS011;40525;55.926;21.066;2023-08-21T05:57:59;2.60;;;2.20;;
54627;SDS011;40525;55.926;21.066;2023-08-21T06:00:26;2.70;;;2.50;;
54627;SDS011;40525;55.926;21.066;2023-08-21T06:02:53;2.50;;;2.00;;
54627;SDS011;40525;55.926;21.066;2023-08-21T06:05:36;2.50;;;2.00;;
54627;SDS011;40525;55.926;21.066;2023-08-21T06:08:04;2.90;;;2.10;;
54627;SDS011;40525;55.926;21.066;2023-08-21T06:10:32;2.20;;;2.00;;
54627;SDS011;40525;55.926;21.066;2023-08-21T06:12:59;3.70;;;2.60;;
54627;SDS011;40525;55.926;21.066;2023-08-21T06:15:26;2.80;;;2.40;;
54627;SDS011;40525;55.926;21.066;2023-08-21T06:17:53;2.90;;;1.90;;
54627;SDS011;40525;55.926;21.066;2023-08-21T06:20:20;2.50;;;2.20;;
54627;SDS011;40525;55.926;21.066;2023-08-21T06:22:47;5.90;;;2.30;;
54627;SDS011;40525;55.926;21.066;2023-08-21T06:25:14;3.30;;;2.40;;
54627;SDS011;40525;55.926;21.066;2023-08-21T06:27:41;2.30;;;2.10;;
54627;SDS011;40525;55.926;21.066;2023-08-21T06:30:24;3.50;;;2.20;;
54627;SDS011;40525;55.926;21.066;2023-08-21T06:32:52;3.20;;;2.20;;
54627;SDS011;40525;55.926;21.066;2023-08-21T06:35:20;2.90;;;2.30;;
54627;SDS011;40525;55.926;21.066;2023-08-21T06:37:47;2.90;;;2.10;;
54627;SDS011;40525;55.926;21.066;2023-08-21T06:40:15;3.00;;;2.40;;
54627;SDS011;40525;55.926;21.066;2023-08-21T06:42:42;2.70;;;1.80;;
54627;SDS011;40525;55.926;21.066;2023-08-21T06:45:10;3.30;;;2.50;;
54627;SDS011;40525;55.926;21.066;2023-08-21T06:47:37;2.50;;;2.20;;
54627;SDS011;40525;55.926;21.066;2023-08-21T06:50:04;2.80;;;2.40;;
54627;SDS011;40525;55.926;21.066;2023-08-21T06:52:31;2.60;;;2.40;;
54627;SDS011;40525;55.926;21.066;2023-08-21T06:54:59;4.10;;;2.20;;
54627;SDS011;40525;55.926;21.066;2023-08-21T06:57:27;2.30;;;2.10;;
54627;SDS011;40525;55.926;21.066;2023-08-21T06:59:54;2.50;;;2.20;;
54627;SDS011;40525;55.926;21.066;2023-08-21T07:02:21;3.60;;;2.60;;
54627;SDS011;40525;55.926;21.066;2023-08-21T07:04:48;2.50;;;2.20;;
54627;SDS011;40525;55.926;21.066;2023-08-21T07:07:16;2.60;;;2.30;;
54627;SDS011;40525;55.926;21.066;2023-08-21T07:09:42;2.30;;;2.10;;
54627;SDS011;40525;55.926;21.066;2023-08-21T07:12:09;2.40;;;2.20;;
54627;SDS011;40525;55.926;21.066;2023-08-21T07:14:36;2.20;;;2.00;;
54627;SDS011;40525;55.926;21.066;2023-08-21T07:17:03;2.90;;;2.30;;
54627;SDS011;40525;55.926;21.066;2023-08-21T07:19:30;2.50;;;2.30;;
54627;SDS011;40525;55.926;21.066;2023-08-21T07:21:57;2.40;;;2.20;;
54627;SDS011;40525;55.926;21.066;2023-08-21T07:24:24;2.40;;;2.00;;
54627;SDS011;40525;55.926;21.066;2023-08-21T07:26:51;2.50;;;2.10;;
54627;SDS011;40525;55.926;21.066;2023-08-21T07:29:18;2.20;;;1.90;;
54627;SDS011;40525;55.926;21.066;2023-08-21T07:31:45;2.70;;;2.40;;
54627;SDS011;40525;55.926;21.066;2023-08-21T07:34:12;2.30;;;1.90;;
54627;SDS011;40525;55.926;21.066;2023-08-21T07:36:39;3.00;;;2.10;;
54627;SDS011;40525;55.926;21.066;2023-08-21T07:39:06;2.10;;;1.90;;
54627;SDS011;40525;55.926;21.066;2023-08-21T07:41:33;2.90;;;1.90;;
54627;SDS011;40525;55.926;21.066;2023-08-21T07:44:00;2.40;;;1.90;;
54627;SDS011;40525;55.926;21.066;2023-08-21T07:46:27;3.40;;;2.20;;
54627;SDS011;40525;55.926;21.066;2023-08-21T07:48:54;2.40;;;1.50;;
54627;SDS011;40525;55.926;21.066;2023-08-21T07:51:21;2.10;;;1.90;;
54627;SDS011;40525;55.926;21.066;2023-08-21T07:53:48;2.10;;;1.90;;
54627;SDS011;40525;55.926;21.066;2023-08-21T07:56:15;2.60;;;2.30;;
54627;SDS011;40525;55.926;21.066;2023-08-21T07:58:42;2.50;;;2.00;;
54627;SDS011;40525;55.926;21.066;2023-08-21T08:01:09;2.00;;;1.70;;
54627;SDS011;40525;55.926;21.066;2023-08-21T08:03:37;2.70;;;1.80;;
54627;SDS011;40525;55.926;21.066;2023-08-21T08:06:04;2.30;;;2.10;;
54627;SDS011;40525;55.926;21.066;2023-08-21T08:08:34;2.30;;;1.90;;
54627;SDS011;40525;55.926;21.066;2023-08-21T08:11:01;5.60;;;2.40;;
54627;SDS011;40525;55.926;21.066;2023-08-21T08:13:31;3.30;;;2.50;;
54627;SDS011;40525;55.926;21.066;2023-08-21T08:15:58;3.20;;;2.00;;
54627;SDS011;40525;55.926;21.066;2023-08-21T08:18:25;2.60;;;1.90;;
54627;SDS011;40525;55.926;21.066;2023-08-21T08:20:52;2.80;;;2.20;;
54627;SDS011;40525;55.926;21.066;2023-08-21T08:23:20;2.30;;;2.10;;
54627;SDS011;40525;55.926;21.066;2023-08-21T08:25:47;3.60;;;2.40;;
54627;SDS011;40525;55.926;21.066;2023-08-21T08:28:14;3.40;;;2.80;;
54627;SDS011;40525;55.926;21.066;2023-08-21T08:30:41;4.20;;;2.80;;
54627;SDS011;40525;55.926;21.066;2023-08-21T08:33:08;2.90;;;2.60;;
54627;SDS011;40525;55.926;21.066;2023-08-21T08:35:35;4.30;;;2.70;;
54627;SDS011;40525;55.926;21.066;2023-08-21T08:38:02;3.80;;;3.10;;
54627;SDS011;40525;55.926;21.066;2023-08-21T08:40:29;3.10;;;2.70;;
54627;SDS011;40525;55.926;21.066;2023-08-21T08:42:57;3.60;;;3.00;;
54627;SDS011;40525;55.926;21.066;2023-08-21T08:45:29;4.70;;;2.60;;
54627;SDS011;40525;55.926;21.066;2023-08-21T08:48:00;5.30;;;2.80;;
54627;SDS011;40525;55.926;21.066;2023-08-21T08:50:31;5.40;;;3.00;;
54627;SDS011;40525;55.926;21.066;2023-08-21T08:53:00;5.50;;;3.30;;
54627;SDS011;40525;55.926;21.066;2023-08-21T08:55:42;4.90;;;3.10;;
54627;SDS011;40525;55.926;21.066;2023-08-21T08:58:09;9.40;;;3.80;;
54627;SDS011;40525;55.926;21.066;2023-08-21T09:00:37;3.70;;;2.70;;
54627;SDS011;40525;55.926;21.066;2023-08-21T09:03:04;5.60;;;3.20;;
54627;SDS011;40525;55.926;21.066;2023-08-21T09:05:32;5.40;;;2.60;;
54627;SDS011;40525;55.926;21.066;2023-08-21T09:08:19;5.10;;;2.70;;
54627;SDS011;40525;55.926;21.066;2023-08-21T09:10:46;3.50;;;2.30;;
54627;SDS011;40525;55.926;21.066;2023-08-21T09:13:17;3.30;;;2.50;;
54627;SDS011;40525;55.926;21.066;2023-08-21T09:15:47;2.50;;;2.30;;
54627;SDS011;40525;55.926;21.066;2023-08-21T09:18:15;3.10;;;2.70;;
54627;SDS011;40525;55.926;21.066;2023-08-21T09:20:42;3.80;;;2.50;;
54627;SDS011;40525;55.926;21.066;2023-08-21T09:23:13;2.80;;;2.40;;
54627;SDS011;40525;55.926;21.066;2023-08-21T09:25:44;3.90;;;2.80;;
54627;SDS011;40525;55.926;21.066;2023-08-21T09:28:19;4.40;;;3.00;;
54627;SDS011;40525;55.926;21.066;2023-08-21T09:30:51;3.30;;;2.50;;
54627;SDS011;40525;55.926;21.066;2023-08-21T09:33:23;4.40;;;3.10;;
54627;SDS011;40525;55.926;21.066;2023-08-21T09:35:52;5.00;;;3.50;;
54627;SDS011;40525;55.926;21.066;2023-08-21T09:38:20;4.60;;;3.70;;
54627;SDS011;40525;55.926;21.066;2023-08-21T09:40:54;3.70;;;3.00;;
54627;SDS011;40525;55.926;21.066;2023-08-21T09:43:22;5.60;;;3.50;;
54627;SDS011;40525;55.926;21.066;2023-08-21T09:45:51;6.40;;;3.30;;
54627;SDS011;40525;55.926;21.066;2023-08-21T09:48:22;5.50;;;3.90;;
54627;SDS011;40525;55.926;21.066;2023-08-21T09:50:51;5.20;;;3.30;;
54627;SDS011;40525;55.926;21.066;2023-08-21T09:53:21;4.30;;;3.00;;
54627;SDS011;40525;55.926;21.066;2023-08-21T09:55:53;4.80;;;3.50;;
54627;SDS011;40525;55.926;21.066;2023-08-21T09:58:21;3.70;;;3.10;;
54627;SDS011;40525;55.926;21.066;2023-08-21T10:00:49;4.30;;;2.90;;
54627;SDS011;40525;55.926;21.066;2023-08-21T10:03:19;4.10;;;3.20;;
54627;SDS011;40525;55.926;21.066;2023-08-21T10:05:48;4.90;;;4.00;;
54627;SDS011;40525;55.926;21.066;2023-08-21T10:08:17;4.80;;;3.70;;
54627;SDS011;40525;55.926;21.066;2023-08-21T10:10:50;5.80;;;3.50;;
54627;SDS011;40525;55.926;21.066;2023-08-21T10:13:17;5.20;;;3.70;;
54627;SDS011;40525;55.926;21.066;2023-08-21T10:15:44;5.00;;;4.00;;
54627;SDS011;40525;55.926;21.066;2023-08-21T10:18:21;4.90;;;3.50;;
54627;SDS011;40525;55.926;21.066;2023-08-21T10:20:52;4.80;;;3.90;;
54627;SDS011;40525;55.926;21.066;2023-08-21T10:23:23;5.20;;;3.60;;
54627;SDS011;40525;55.926;21.066;2023-08-21T10:26:05;5.20;;;3.70;;
54627;SDS011;40525;55.926;21.066;2023-08-21T10:33:58;5.70;;;4.00;;
54627;SDS011;40525;55.926;21.066;2023-08-21T10:39:31;5.10;;;3.80;;
54627;SDS011;40525;55.926;21.066;2023-08-21T10:42:01;4.30;;;3.80;;
54627;SDS011;40525;55.926;21.066;2023-08-21T10:44:35;4.00;;;3.10;;
54627;SDS011;40525;55.926;21.066;2023-08-21T10:49:54;4.90;;;3.30;;
54627;SDS011;40525;55.926;21.066;2023-08-21T10:55:09;3.20;;;2.40;;
54627;SDS011;40525;55.926;21.066;2023-08-21T10:57:38;2.50;;;2.20;;
54627;SDS011;40525;55.926;21.066;2023-08-21T11:00:08;2.80;;;2.40;;
54627;SDS011;40525;55.926;21.066;2023-08-21T11:02:41;4.00;;;2.60;;
54627;SDS011;40525;55.926;21.066;2023-08-21T11:05:09;3.50;;;2.50;;
54627;SDS011;40525;55.926;21.066;2023-08-21T11:07:38;5.00;;;2.80;;
54627;SDS011;40525;55.926;21.066;2023-08-21T11:10:23;3.70;;;2.70;;
54627;SDS011;40525;55.926;21.066;2023-08-21T11:12:52;4.00;;;2.70;;
54627;SDS011;40525;55.926;21.066;2023-08-21T11:15:22;4.00;;;2.90;;
54627;SDS011;40525;55.926;21.066;2023-08-21T11:17:52;4.20;;;3.10;;
54627;SDS011;40525;55.926;21.066;2023-08-21T11:22:59;4.60;;;3.30;;
54627;SDS011;40525;55.926;21.066;2023-08-21T11:25:32;5.40;;;3.60;;
54627;SDS011;40525;55.926;21.066;2023-08-21T11:28:00;5.60;;;3.00;;
54627;SDS011;40525;55.926;21.066;2023-08-21T11:30:30;5.30;;;3.10;;
54627;SDS011;40525;55.926;21.066;2023-08-21T11:33:08;4.30;;;3.00;;
54627;SDS011;40525;55.926;21.066;2023-08-21T11:35:39;4.10;;;3.30;;
54627;SDS011;40525;55.926;21.066;2023-08-21T11:38:17;4.70;;;2.70;;
54627;SDS011;40525;55.926;21.066;2023-08-21T11:40:55;3.30;;;2.30;;
54627;SDS011;40525;55.926;21.066;2023-08-21T11:43:36;3.90;;;2.80;;
54627;SDS011;40525;55.926;21.066;2023-08-21T11:46:05;5.30;;;2.90;;
54627;SDS011;40525;55.926;21.066;2023-08-21T11:48:38;4.40;;;2.90;;
54627;SDS011;40525;55.926;21.066;2023-08-21T11:51:07;4.10;;;2.40;;
54627;SDS011;40525;55.926;21.066;2023-08-21T11:56:13;6.20;;;2.90;;
54627;SDS011;40525;55.926;21.066;2023-08-21T11:58:45;3.70;;;2.60;;
54627;SDS011;40525;55.926;21.066;2023-08-21T12:01:19;4.30;;;2.70;;
54627;SDS011;40525;55.926;21.066;2023-08-21T12:03:47;4.40;;;2.70;;
54627;SDS011;40525;55.926;21.066;2023-08-21T12:06:23;4.40;;;2.50;;
54627;SDS011;40525;55.926;21.066;2023-08-21T12:08:52;5.10;;;2.60;;
54627;SDS011;40525;55.926;21.066;2023-08-21T12:11:20;3.50;;;2.40;;
54627;SDS011;40525;55.926;21.066;2023-08-21T12:13:48;9.30;;;3.30;;
54627;SDS011;40525;55.926;21.066;2023-08-21T12:16:15;7.50;;;2.90;;
54627;SDS011;40525;55.926;21.066;2023-08-21T12:18:42;4.50;;;2.50;;
54627;SDS011;40525;55.926;21.066;2023-08-21T12:21:09;4.20;;;2.20;;
54627;SDS011;40525;55.926;21.066;2023-08-21T12:23:36;6.30;;;2.80;;
54627;SDS011;40525;55.926;21.066;2023-08-21T12:26:03;4.00;;;2.40;;
54627;SDS011;40525;55.926;21.066;2023-08-21T12:28:30;4.30;;;2.70;;
54627;SDS011;40525;55.926;21.066;2023-08-21T12:30:57;4.00;;;2.40;;
54627;SDS011;40525;55.926;21.066;2023-08-21T12:33:24;5.10;;;2.50;;
54627;SDS011;40525;55.926;21.066;2023-08-21T12:35:51;5.60;;;2.30;;
54627;SDS011;40525;55.926;21.066;2023-08-21T12:38:18;12.60;;;3.20;;
54627;SDS011;40525;55.926;21.066;2023-08-21T12:40:47;4.30;;;2.50;;
54627;SDS011;40525;55.926;21.066;2023-08-21T12:43:14;4.70;;;2.70;;
54627;SDS011;40525;55.926;21.066;2023-08-21T12:45:41;4.10;;;2.30;;
54627;SDS011;40525;55.926;21.066;2023-08-21T12:48:08;3.30;;;1.90;;
54627;SDS011;40525;55.926;21.066;2023-08-21T12:50:35;2.40;;;2.20;;
54627;SDS011;40525;55.926;21.066;2023-08-21T12:53:02;5.40;;;2.40;;
54627;SDS011;40525;55.926;21.066;2023-08-21T12:55:30;3.10;;;2.00;;
54627;SDS011;40525;55.926;21.066;2023-08-21T12:57:57;12.50;;;3.20;;
54627;SDS011;40525;55.926;21.066;2023-08-21T13:00:24;5.60;;;2.50;;
54627;SDS011;40525;55.926;21.066;2023-08-21T13:02:51;4.50;;;2.30;;
54627;SDS011;40525;55.926;21.066;2023-08-21T13:05:18;3.30;;;2.10;;
54627;SDS011;40525;55.926;21.066;2023-08-21T13:07:46;3.30;;;2.20;;
54627;SDS011;40525;55.926;21.066;2023-08-21T13:10:13;3.60;;;2.30;;
54627;SDS011;40525;55.926;21.066;2023-08-21T13:12:40;4.40;;;2.50;;
54627;SDS011;40525;55.926;21.066;2023-08-21T13:15:08;5.40;;;2.20;;
54627;SDS011;40525;55.926;21.066;2023-08-21T13:17:35;7.80;;;3.30;;
54627;SDS011;40525;55.926;21.066;2023-08-21T13:20:03;7.70;;;2.30;;
54627;SDS011;40525;55.926;21.066;2023-08-21T13:22:46;3.90;;;2.30;;
54627;SDS011;40525;55.926;21.066;2023-08-21T13:25:15;4.90;;;2.00;;
54627;SDS011;40525;55.926;21.066;2023-08-21T13:27:43;4.00;;;2.40;;
54627;SDS011;40525;55.926;21.066;2023-08-21T13:30:10;7.00;;;2.70;;
54627;SDS011;40525;55.926;21.066;2023-08-21T13:32:38;3.30;;;2.30;;
54627;SDS011;40525;55.926;21.066;2023-08-21T13:35:06;5.50;;;2.10;;
54627;SDS011;40525;55.926;21.066;2023-08-21T13:37:38;3.90;;;2.50;;
54627;SDS011;40525;55.926;21.066;2023-08-21T13:40:06;3.30;;;2.10;;
54627;SDS011;40525;55.926;21.066;2023-08-21T13:42:40;3.90;;;2.40;;
54627;SDS011;40525;55.926;21.066;2023-08-21T13:45:10;3.90;;;2.30;;
54627;SDS011;40525;55.926;21.066;2023-08-21T13:47:40;3.40;;;2.10;;
54627;SDS011;40525;55.926;21.066;2023-08-21T13:50:08;3.70;;;2.00;;
54627;SDS011;40525;55.926;21.066;2023-08-21T13:52:37;4.30;;;2.30;;
54627;SDS011;40525;55.926;21.066;2023-08-21T13:55:08;6.10;;;2.40;;
54627;SDS011;40525;55.926;21.066;2023-08-21T13:57:36;3.80;;;2.10;;
54627;SDS011;40525;55.926;21.066;2023-08-21T14:00:05;5.60;;;2.10;;
54627;SDS011;40525;55.926;21.066;2023-08-21T14:02:40;4.60;;;2.30;;
54627;SDS011;40525;55.926;21.066;2023-08-21T14:05:08;4.30;;;2.40;;
54627;SDS011;40525;55.926;21.066;2023-08-21T14:07:38;3.70;;;2.10;;
54627;SDS011;40525;55.926;21.066;2023-08-21T14:10:07;6.00;;;2.40;;
54627;SDS011;40525;55.926;21.066;2023-08-21T14:12:35;4.30;;;2.60;;
54627;SDS011;40525;55.926;21.066;2023-08-21T14:15:07;3.10;;;2.10;;
54627;SDS011;40525;55.926;21.066;2023-08-21T14:17:34;5.30;;;2.50;;
54627;SDS011;40525;55.926;21.066;2023-08-21T14:20:02;4.10;;;2.30;;
54627;SDS011;40525;55.926;21.066;2023-08-21T14:22:30;3.10;;;2.30;;
54627;SDS011;40525;55.926;21.066;2023-08-21T14:24:58;3.90;;;2.20;;
54627;SDS011;40525;55.926;21.066;2023-08-21T14:27:27;4.10;;;2.60;;
54627;SDS011;40525;55.926;21.066;2023-08-21T14:29:54;4.20;;;2.00;;
54627;SDS011;40525;55.926;21.066;2023-08-21T14:32:21;4.10;;;2.10;;
54627;SDS011;40525;55.926;21.066;2023-08-21T14:34:48;5.00;;;1.80;;
54627;SDS011;40525;55.926;21.066;2023-08-21T14:37:15;2.60;;;1.90;;
54627;SDS011;40525;55.926;21.066;2023-08-21T14:39:43;3.20;;;2.10;;
54627;SDS011;40525;55.926;21.066;2023-08-21T14:42:10;4.00;;;2.00;;
54627;SDS011;40525;55.926;21.066;2023-08-21T14:44:37;2.50;;;2.00;;
54627;SDS011;40525;55.926;21.066;2023-08-21T14:47:05;4.90;;;2.20;;
54627;SDS011;40525;55.926;21.066;2023-08-21T14:49:34;4.20;;;2.20;;
54627;SDS011;40525;55.926;21.066;2023-08-21T14:52:01;3.60;;;2.00;;
54627;SDS011;40525;55.926;21.066;2023-08-21T14:54:29;2.80;;;1.80;;
54627;SDS011;40525;55.926;21.066;2023-08-21T14:56:56;3.50;;;2.10;;
54627;SDS011;40525;55.926;21.066;2023-08-21T14:59:23;4.40;;;2.20;;
54627;SDS011;40525;55.926;21.066;2023-08-21T15:01:51;3.00;;;1.80;;
54627;SDS011;40525;55.926;21.066;2023-08-21T15:04:19;5.30;;;2.50;;
54627;SDS011;40525;55.926;21.066;2023-08-21T15:06:47;3.50;;;2.20;;